sensor_id;sensor_type;location;lat;lon;timestamp;P1;durP1;ratioP1;P2;durP2;ratioP2
10705;SDS011;5404;42.656;23.336;2023-08-06T00:01:50;8.90;;;5.22;;
10705;SDS011;5404;42.656;23.336;2023-08-06T00:04:16;7.18;;;4.53;;
10705;SDS011;5404;42.656;23.336;2023-08-06T00:06:41;10.88;;;5.15;;
10705;SDS011;5404;42.656;23.336;2023-08-06T00:09:09;12.90;;;6.40;;
10705;SDS011;5404;42.656;23.336;2023-08-06T00:11:35;23.85;;;7.25;;
10705;SDS011;5404;42.656;23.336;2023-08-06T00:14:00;8.38;;;5.18;;
10705;SDS011;5404;42.656;23.336;2023-08-06T00:16:26;16.33;;;5.28;;
10705;SDS011;5404;42.656;23.336;2023-08-06T00:18:51;9.80;;;5.22;;
10705;SDS011;5404;42.656;23.336;2023-08-06T00:21:17;13.13;;;5.05;;
10705;SDS011;5404;42.656;23.336;2023-08-06T00:23:42;8.15;;;4.82;;
10705;SDS011;5404;42.656;23.336;2023-08-06T00:26:07;14.90;;;5.50;;
10705;SDS011;5404;42.656;23.336;2023-08-06T00:28:33;13.00;;;5.80;;
10705;SDS011;5404;42.656;23.336;2023-08-06T00:30:58;8.85;;;4.93;;
10705;SDS011;5404;42.656;23.336;2023-08-06T00:33:24;7.07;;;5.28;;
10705;SDS011;5404;42.656;23.336;2023-08-06T00:35:49;12.32;;;5.55;;
10705;SDS011;5404;42.656;23.336;2023-08-06T00:38:15;9.18;;;5.75;;
10705;SDS011;5404;42.656;23.336;2023-08-06T00:40:41;11.23;;;6.32;;
10705;SDS011;5404;42.656;23.336;2023-08-06T00:43:06;10.57;;;5.30;;
10705;SDS011;5404;42.656;23.336;2023-08-06T00:45:37;9.10;;;5.85;;
10705;SDS011;5404;42.656;23.336;2023-08-06T00:48:03;9.07;;;6.07;;
10705;SDS011;5404;42.656;23.336;2023-08-06T00:50:30;11.75;;;5.07;;
10705;SDS011;5404;42.656;23.336;2023-08-06T00:52:56;6.88;;;4.78;;
10705;SDS011;5404;42.656;23.336;2023-08-06T00:55:22;9.27;;;4.72;;
10705;SDS011;5404;42.656;23.336;2023-08-06T00:57:47;8.50;;;5.25;;
10705;SDS011;5404;42.656;23.336;2023-08-06T01:00:13;13.75;;;5.50;;
10705;SDS011;5404;42.656;23.336;2023-08-06T01:02:38;10.70;;;5.75;;
10705;SDS011;5404;42.656;23.336;2023-08-06T01:05:04;14.93;;;6.07;;
10705;SDS011;5404;42.656;23.336;2023-08-06T01:13:19;10.73;;;5.60;;
10705;SDS011;5404;42.656;23.336;2023-08-06T01:15:54;10.73;;;6.35;;
10705;SDS011;5404;42.656;23.336;2023-08-06T01:18:23;12.05;;;7.03;;
10705;SDS011;5404;42.656;23.336;2023-08-06T01:20:49;10.93;;;5.55;;
10705;SDS011;5404;42.656;23.336;2023-08-06T01:23:15;10.95;;;5.95;;
10705;SDS011;5404;42.656;23.336;2023-08-06T01:31:32;14.38;;;7.65;;
10705;SDS011;5404;42.656;23.336;2023-08-06T01:34:01;11.73;;;6.43;;
10705;SDS011;5404;42.656;23.336;2023-08-06T01:36:29;15.40;;;7.45;;
10705;SDS011;5404;42.656;23.336;2023-08-06T01:38:55;17.00;;;6.97;;
10705;SDS011;5404;42.656;23.336;2023-08-06T01:41:22;11.23;;;7.55;;
10705;SDS011;5404;42.656;23.336;2023-08-06T01:43:47;12.25;;;7.25;;
10705;SDS011;5404;42.656;23.336;2023-08-06T01:46:13;14.88;;;7.07;;
10705;SDS011;5404;42.656;23.336;2023-08-06T01:48:38;12.88;;;7.55;;
10705;SDS011;5404;42.656;23.336;2023-08-06T01:51:04;8.48;;;6.28;;
10705;SDS011;5404;42.656;23.336;2023-08-06T01:53:30;10.80;;;6.57;;
10705;SDS011;5404;42.656;23.336;2023-08-06T01:55:56;11.30;;;6.63;;
10705;SDS011;5404;42.656;23.336;2023-08-06T01:58:22;10.75;;;7.60;;
10705;SDS011;5404;42.656;23.336;2023-08-06T02:00:47;16.05;;;7.50;;
10705;SDS011;5404;42.656;23.336;2023-08-06T02:03:13;15.55;;;8.52;;
10705;SDS011;5404;42.656;23.336;2023-08-06T02:05:38;12.77;;;7.47;;
10705;SDS011;5404;42.656;23.336;2023-08-06T02:08:05;13.27;;;7.95;;
10705;SDS011;5404;42.656;23.336;2023-08-06T02:10:30;13.20;;;8.40;;
10705;SDS011;5404;42.656;23.336;2023-08-06T02:12:56;13.20;;;8.15;;
10705;SDS011;5404;42.656;23.336;2023-08-06T02:15:21;8.57;;;6.70;;
10705;SDS011;5404;42.656;23.336;2023-08-06T02:17:46;13.98;;;6.45;;
10705;SDS011;5404;42.656;23.336;2023-08-06T02:20:12;7.88;;;5.57;;
10705;SDS011;5404;42.656;23.336;2023-08-06T02:22:37;9.07;;;5.88;;
10705;SDS011;5404;42.656;23.336;2023-08-06T02:25:03;7.18;;;5.47;;
10705;SDS011;5404;42.656;23.336;2023-08-06T02:27:28;8.02;;;5.78;;
10705;SDS011;5404;42.656;23.336;2023-08-06T02:29:54;9.15;;;6.32;;
10705;SDS011;5404;42.656;23.336;2023-08-06T02:32:19;16.02;;;5.70;;
10705;SDS011;5404;42.656;23.336;2023-08-06T02:34:45;21.08;;;6.95;;
10705;SDS011;5404;42.656;23.336;2023-08-06T02:37:10;14.95;;;7.47;;
10705;SDS011;5404;42.656;23.336;2023-08-06T02:39:35;15.75;;;6.57;;
10705;SDS011;5404;42.656;23.336;2023-08-06T02:42:04;11.75;;;6.05;;
10705;SDS011;5404;42.656;23.336;2023-08-06T02:44:31;11.48;;;6.35;;
10705;SDS011;5404;42.656;23.336;2023-08-06T02:46:56;12.55;;;7.10;;
10705;SDS011;5404;42.656;23.336;2023-08-06T02:49:22;13.35;;;7.07;;
10705;SDS011;5404;42.656;23.336;2023-08-06T02:51:47;10.00;;;6.20;;
10705;SDS011;5404;42.656;23.336;2023-08-06T02:54:12;12.32;;;6.47;;
10705;SDS011;5404;42.656;23.336;2023-08-06T02:56:38;10.98;;;7.30;;
10705;SDS011;5404;42.656;23.336;2023-08-06T02:59:03;11.00;;;6.35;;
10705;SDS011;5404;42.656;23.336;2023-08-06T03:01:29;11.45;;;6.95;;
10705;SDS011;5404;42.656;23.336;2023-08-06T03:03:54;15.30;;;5.90;;
10705;SDS011;5404;42.656;23.336;2023-08-06T03:06:20;19.83;;;7.43;;
10705;SDS011;5404;42.656;23.336;2023-08-06T03:08:45;12.00;;;7.35;;
10705;SDS011;5404;42.656;23.336;2023-08-06T03:11:11;9.25;;;6.32;;
10705;SDS011;5404;42.656;23.336;2023-08-06T03:13:36;10.55;;;6.55;;
10705;SDS011;5404;42.656;23.336;2023-08-06T03:16:01;10.93;;;6.22;;
10705;SDS011;5404;42.656;23.336;2023-08-06T03:18:27;9.93;;;6.45;;
10705;SDS011;5404;42.656;23.336;2023-08-06T03:20:53;9.55;;;6.63;;
10705;SDS011;5404;42.656;23.336;2023-08-06T03:23:19;16.58;;;7.20;;
10705;SDS011;5404;42.656;23.336;2023-08-06T03:25:44;14.30;;;7.47;;
10705;SDS011;5404;42.656;23.336;2023-08-06T03:28:10;12.90;;;7.30;;
10705;SDS011;5404;42.656;23.336;2023-08-06T03:30:36;7.47;;;5.40;;
10705;SDS011;5404;42.656;23.336;2023-08-06T03:33:01;7.38;;;5.80;;
10705;SDS011;5404;42.656;23.336;2023-08-06T03:35:27;12.63;;;6.35;;
10705;SDS011;5404;42.656;23.336;2023-08-06T03:37:52;10.77;;;6.57;;
10705;SDS011;5404;42.656;23.336;2023-08-06T03:40:18;9.38;;;6.45;;
10705;SDS011;5404;42.656;23.336;2023-08-06T03:42:43;10.70;;;7.15;;
10705;SDS011;5404;42.656;23.336;2023-08-06T03:45:09;7.60;;;6.15;;
10705;SDS011;5404;42.656;23.336;2023-08-06T03:47:34;14.18;;;6.40;;
10705;SDS011;5404;42.656;23.336;2023-08-06T03:50:00;10.30;;;6.82;;
10705;SDS011;5404;42.656;23.336;2023-08-06T03:52:25;12.55;;;7.30;;
10705;SDS011;5404;42.656;23.336;2023-08-06T03:54:51;13.88;;;6.55;;
10705;SDS011;5404;42.656;23.336;2023-08-06T03:57:17;16.27;;;6.88;;
10705;SDS011;5404;42.656;23.336;2023-08-06T03:59:42;11.88;;;6.03;;
10705;SDS011;5404;42.656;23.336;2023-08-06T04:02:08;13.65;;;7.28;;
10705;SDS011;5404;42.656;23.336;2023-08-06T04:04:33;9.20;;;7.18;;
10705;SDS011;5404;42.656;23.336;2023-08-06T04:06:58;10.65;;;7.22;;
10705;SDS011;5404;42.656;23.336;2023-08-06T04:09:24;12.05;;;6.82;;
10705;SDS011;5404;42.656;23.336;2023-08-06T04:11:49;12.52;;;6.70;;
10705;SDS011;5404;42.656;23.336;2023-08-06T04:14:15;8.68;;;5.80;;
10705;SDS011;5404;42.656;23.336;2023-08-06T04:16:40;9.30;;;6.55;;
10705;SDS011;5404;42.656;23.336;2023-08-06T04:19:05;10.40;;;5.80;;
10705;SDS011;5404;42.656;23.336;2023-08-06T04:21:31;15.52;;;6.47;;
10705;SDS011;5404;42.656;23.336;2023-08-06T04:23:56;10.48;;;6.38;;
10705;SDS011;5404;42.656;23.336;2023-08-06T04:26:22;12.68;;;6.82;;
10705;SDS011;5404;42.656;23.336;2023-08-06T04:28:47;8.85;;;6.50;;
10705;SDS011;5404;42.656;23.336;2023-08-06T04:31:14;10.77;;;6.60;;
10705;SDS011;5404;42.656;23.336;2023-08-06T04:33:39;12.60;;;6.88;;
10705;SDS011;5404;42.656;23.336;2023-08-06T04:36:06;9.50;;;6.25;;
10705;SDS011;5404;42.656;23.336;2023-08-06T04:38:32;9.50;;;6.43;;
10705;SDS011;5404;42.656;23.336;2023-08-06T04:40:57;7.93;;;5.60;;
10705;SDS011;5404;42.656;23.336;2023-08-06T04:43:23;9.88;;;6.07;;
10705;SDS011;5404;42.656;23.336;2023-08-06T04:45:49;11.25;;;6.18;;
10705;SDS011;5404;42.656;23.336;2023-08-06T04:48:15;8.85;;;6.22;;
10705;SDS011;5404;42.656;23.336;2023-08-06T04:50:45;9.70;;;5.97;;
10705;SDS011;5404;42.656;23.336;2023-08-06T04:53:11;7.70;;;5.75;;
10705;SDS011;5404;42.656;23.336;2023-08-06T04:55:36;8.00;;;5.90;;
10705;SDS011;5404;42.656;23.336;2023-08-06T04:58:01;12.15;;;6.65;;
10705;SDS011;5404;42.656;23.336;2023-08-06T05:00:27;10.55;;;7.05;;
10705;SDS011;5404;42.656;23.336;2023-08-06T05:02:52;11.38;;;7.78;;
10705;SDS011;5404;42.656;23.336;2023-08-06T05:05:18;14.23;;;7.55;;
10705;SDS011;5404;42.656;23.336;2023-08-06T05:07:45;11.70;;;8.10;;
10705;SDS011;5404;42.656;23.336;2023-08-06T05:10:13;12.75;;;8.25;;
10705;SDS011;5404;42.656;23.336;2023-08-06T05:12:41;16.15;;;9.50;;
10705;SDS011;5404;42.656;23.336;2023-08-06T05:15:07;12.50;;;6.57;;
10705;SDS011;5404;42.656;23.336;2023-08-06T05:17:33;6.72;;;5.05;;
10705;SDS011;5404;42.656;23.336;2023-08-06T05:19:59;8.13;;;5.35;;
10705;SDS011;5404;42.656;23.336;2023-08-06T05:22:24;8.77;;;5.63;;
10705;SDS011;5404;42.656;23.336;2023-08-06T05:24:50;12.63;;;7.70;;
10705;SDS011;5404;42.656;23.336;2023-08-06T05:27:15;14.82;;;8.98;;
10705;SDS011;5404;42.656;23.336;2023-08-06T05:29:43;12.97;;;9.33;;
10705;SDS011;5404;42.656;23.336;2023-08-06T05:32:09;19.95;;;11.60;;
10705;SDS011;5404;42.656;23.336;2023-08-06T05:34:35;33.30;;;19.73;;
10705;SDS011;5404;42.656;23.336;2023-08-06T05:37:00;36.97;;;21.25;;
10705;SDS011;5404;42.656;23.336;2023-08-06T05:39:26;34.45;;;17.90;;
10705;SDS011;5404;42.656;23.336;2023-08-06T05:41:51;27.55;;;15.68;;
10705;SDS011;5404;42.656;23.336;2023-08-06T05:44:17;26.48;;;14.80;;
10705;SDS011;5404;42.656;23.336;2023-08-06T05:46:43;22.33;;;11.57;;
10705;SDS011;5404;42.656;23.336;2023-08-06T05:49:08;13.75;;;9.32;;
10705;SDS011;5404;42.656;23.336;2023-08-06T05:51:33;20.58;;;10.40;;
10705;SDS011;5404;42.656;23.336;2023-08-06T05:53:59;14.52;;;11.38;;
10705;SDS011;5404;42.656;23.336;2023-08-06T05:56:24;19.88;;;11.55;;
10705;SDS011;5404;42.656;23.336;2023-08-06T05:58:50;14.68;;;10.35;;
10705;SDS011;5404;42.656;23.336;2023-08-06T06:01:18;12.88;;;8.15;;
10705;SDS011;5404;42.656;23.336;2023-08-06T06:03:43;11.55;;;7.30;;
10705;SDS011;5404;42.656;23.336;2023-08-06T06:06:09;9.02;;;6.85;;
10705;SDS011;5404;42.656;23.336;2023-08-06T06:08:34;11.40;;;6.65;;
10705;SDS011;5404;42.656;23.336;2023-08-06T06:10:59;8.15;;;6.20;;
10705;SDS011;5404;42.656;23.336;2023-08-06T06:13:25;7.85;;;4.97;;
10705;SDS011;5404;42.656;23.336;2023-08-06T06:15:54;6.75;;;5.10;;
10705;SDS011;5404;42.656;23.336;2023-08-06T06:18:21;9.48;;;5.05;;
10705;SDS011;5404;42.656;23.336;2023-08-06T06:20:46;6.78;;;5.40;;
10705;SDS011;5404;42.656;23.336;2023-08-06T06:23:12;12.30;;;5.22;;
10705;SDS011;5404;42.656;23.336;2023-08-06T06:25:41;8.93;;;5.13;;
10705;SDS011;5404;42.656;23.336;2023-08-06T06:28:08;6.93;;;4.30;;
10705;SDS011;5404;42.656;23.336;2023-08-06T06:30:33;6.38;;;3.75;;
10705;SDS011;5404;42.656;23.336;2023-08-06T06:32:59;3.28;;;2.95;;
10705;SDS011;5404;42.656;23.336;2023-08-06T06:35:24;4.95;;;3.50;;
10705;SDS011;5404;42.656;23.336;2023-08-06T06:37:50;6.07;;;4.10;;
10705;SDS011;5404;42.656;23.336;2023-08-06T06:40:15;5.45;;;4.30;;
10705;SDS011;5404;42.656;23.336;2023-08-06T06:42:41;6.03;;;3.50;;
10705;SDS011;5404;42.656;23.336;2023-08-06T06:45:06;4.68;;;3.45;;
10705;SDS011;5404;42.656;23.336;2023-08-06T06:47:32;3.42;;;2.97;;
10705;SDS011;5404;42.656;23.336;2023-08-06T06:49:58;4.57;;;3.35;;
10705;SDS011;5404;42.656;23.336;2023-08-06T06:52:23;6.53;;;3.05;;
10705;SDS011;5404;42.656;23.336;2023-08-06T06:54:49;5.28;;;2.90;;
10705;SDS011;5404;42.656;23.336;2023-08-06T06:57:14;3.67;;;3.13;;
10705;SDS011;5404;42.656;23.336;2023-08-06T06:59:39;4.75;;;3.58;;
10705;SDS011;5404;42.656;23.336;2023-08-06T07:02:05;5.72;;;4.72;;
10705;SDS011;5404;42.656;23.336;2023-08-06T07:04:31;12.65;;;5.28;;
10705;SDS011;5404;42.656;23.336;2023-08-06T07:06:56;6.78;;;5.45;;
10705;SDS011;5404;42.656;23.336;2023-08-06T07:09:21;6.93;;;5.93;;
10705;SDS011;5404;42.656;23.336;2023-08-06T07:11:47;11.10;;;6.45;;
10705;SDS011;5404;42.656;23.336;2023-08-06T07:14:12;8.80;;;6.15;;
10705;SDS011;5404;42.656;23.336;2023-08-06T07:16:39;6.50;;;5.10;;
10705;SDS011;5404;42.656;23.336;2023-08-06T07:19:05;7.20;;;4.47;;
10705;SDS011;5404;42.656;23.336;2023-08-06T07:21:30;7.07;;;5.63;;
10705;SDS011;5404;42.656;23.336;2023-08-06T07:23:57;7.53;;;3.90;;
10705;SDS011;5404;42.656;23.336;2023-08-06T07:26:24;5.68;;;3.70;;
10705;SDS011;5404;42.656;23.336;2023-08-06T07:28:50;7.50;;;3.58;;
10705;SDS011;5404;42.656;23.336;2023-08-06T07:31:15;8.48;;;4.38;;
10705;SDS011;5404;42.656;23.336;2023-08-06T07:33:41;5.25;;;4.00;;
10705;SDS011;5404;42.656;23.336;2023-08-06T07:36:10;6.75;;;3.95;;
10705;SDS011;5404;42.656;23.336;2023-08-06T07:38:37;6.57;;;4.00;;
10705;SDS011;5404;42.656;23.336;2023-08-06T07:41:03;5.13;;;3.65;;
10705;SDS011;5404;42.656;23.336;2023-08-06T07:43:29;6.15;;;3.78;;
10705;SDS011;5404;42.656;23.336;2023-08-06T07:45:58;7.32;;;3.55;;
10705;SDS011;5404;42.656;23.336;2023-08-06T07:48:25;4.68;;;3.33;;
10705;SDS011;5404;42.656;23.336;2023-08-06T07:50:51;5.93;;;3.88;;
10705;SDS011;5404;42.656;23.336;2023-08-06T07:53:19;7.05;;;4.00;;
10705;SDS011;5404;42.656;23.336;2023-08-06T07:55:52;5.70;;;3.65;;
10705;SDS011;5404;42.656;23.336;2023-08-06T07:58:19;4.18;;;3.63;;
10705;SDS011;5404;42.656;23.336;2023-08-06T08:00:45;5.55;;;4.00;;
10705;SDS011;5404;42.656;23.336;2023-08-06T08:03:12;6.03;;;3.95;;
10705;SDS011;5404;42.656;23.336;2023-08-06T08:05:41;15.15;;;4.05;;
10705;SDS011;5404;42.656;23.336;2023-08-06T08:08:07;5.85;;;3.58;;
10705;SDS011;5404;42.656;23.336;2023-08-06T08:10:33;7.43;;;3.70;;
10705;SDS011;5404;42.656;23.336;2023-08-06T08:13:00;5.00;;;3.78;;
10705;SDS011;5404;42.656;23.336;2023-08-06T08:15:27;4.95;;;3.35;;
10705;SDS011;5404;42.656;23.336;2023-08-06T08:17:53;8.57;;;3.88;;
10705;SDS011;5404;42.656;23.336;2023-08-06T08:20:19;6.15;;;4.68;;
10705;SDS011;5404;42.656;23.336;2023-08-06T08:22:45;8.48;;;3.63;;
10705;SDS011;5404;42.656;23.336;2023-08-06T08:25:11;6.60;;;3.03;;
10705;SDS011;5404;42.656;23.336;2023-08-06T08:27:36;5.47;;;3.20;;
10705;SDS011;5404;42.656;23.336;2023-08-06T08:30:02;4.25;;;3.20;;
10705;SDS011;5404;42.656;23.336;2023-08-06T08:32:27;7.30;;;3.92;;
10705;SDS011;5404;42.656;23.336;2023-08-06T08:34:53;5.25;;;3.78;;
10705;SDS011;5404;42.656;23.336;2023-08-06T08:37:18;6.85;;;3.75;;
10705;SDS011;5404;42.656;23.336;2023-08-06T08:39:44;8.13;;;3.58;;
10705;SDS011;5404;42.656;23.336;2023-08-06T08:42:09;8.48;;;3.60;;
10705;SDS011;5404;42.656;23.336;2023-08-06T08:44:35;8.57;;;3.78;;
10705;SDS011;5404;42.656;23.336;2023-08-06T08:49:30;7.55;;;3.60;;
10705;SDS011;5404;42.656;23.336;2023-08-06T08:51:56;14.40;;;4.60;;
10705;SDS011;5404;42.656;23.336;2023-08-06T08:54:26;4.97;;;2.92;;
10705;SDS011;5404;42.656;23.336;2023-08-06T08:56:52;7.18;;;2.95;;
10705;SDS011;5404;42.656;23.336;2023-08-06T08:59:18;6.78;;;3.28;;
10705;SDS011;5404;42.656;23.336;2023-08-06T09:01:43;9.93;;;3.53;;
10705;SDS011;5404;42.656;23.336;2023-08-06T09:04:11;7.57;;;2.80;;
10705;SDS011;5404;42.656;23.336;2023-08-06T09:06:38;6.78;;;3.42;;
10705;SDS011;5404;42.656;23.336;2023-08-06T09:09:06;4.32;;;3.10;;
10705;SDS011;5404;42.656;23.336;2023-08-06T09:14:06;3.97;;;3.30;;
10705;SDS011;5404;42.656;23.336;2023-08-06T09:16:34;5.93;;;3.30;;
10705;SDS011;5404;42.656;23.336;2023-08-06T09:19:12;4.72;;;3.75;;
10705;SDS011;5404;42.656;23.336;2023-08-06T09:21:40;6.18;;;2.95;;
10705;SDS011;5404;42.656;23.336;2023-08-06T09:24:10;6.68;;;3.35;;
10705;SDS011;5404;42.656;23.336;2023-08-06T09:26:41;4.40;;;3.47;;
10705;SDS011;5404;42.656;23.336;2023-08-06T09:29:07;5.35;;;3.72;;
10705;SDS011;5404;42.656;23.336;2023-08-06T09:31:45;4.97;;;3.60;;
10705;SDS011;5404;42.656;23.336;2023-08-06T09:34:18;4.80;;;3.55;;
10705;SDS011;5404;42.656;23.336;2023-08-06T09:36:47;7.78;;;3.28;;
10705;SDS011;5404;42.656;23.336;2023-08-06T09:39:17;4.22;;;2.83;;
10705;SDS011;5404;42.656;23.336;2023-08-06T09:41:44;4.75;;;2.85;;
10705;SDS011;5404;42.656;23.336;2023-08-06T09:44:16;5.22;;;3.53;;
10705;SDS011;5404;42.656;23.336;2023-08-06T09:46:53;4.07;;;2.80;;
10705;SDS011;5404;42.656;23.336;2023-08-06T09:49:39;3.90;;;2.35;;
10705;SDS011;5404;42.656;23.336;2023-08-06T09:52:09;8.18;;;2.33;;
10705;SDS011;5404;42.656;23.336;2023-08-06T09:54:37;4.43;;;2.30;;
10705;SDS011;5404;42.656;23.336;2023-08-06T09:57:03;6.40;;;2.70;;
10705;SDS011;5404;42.656;23.336;2023-08-06T09:59:29;5.13;;;2.80;;
10705;SDS011;5404;42.656;23.336;2023-08-06T10:01:55;3.55;;;2.50;;
10705;SDS011;5404;42.656;23.336;2023-08-06T10:04:21;6.45;;;2.20;;
10705;SDS011;5404;42.656;23.336;2023-08-06T10:06:48;6.90;;;2.60;;
10705;SDS011;5404;42.656;23.336;2023-08-06T10:09:13;2.72;;;2.38;;
10705;SDS011;5404;42.656;23.336;2023-08-06T10:11:39;3.03;;;2.25;;
10705;SDS011;5404;42.656;23.336;2023-08-06T10:14:08;5.30;;;2.40;;
10705;SDS011;5404;42.656;23.336;2023-08-06T10:16:37;3.65;;;2.17;;
10705;SDS011;5404;42.656;23.336;2023-08-06T10:19:05;8.30;;;2.38;;
10705;SDS011;5404;42.656;23.336;2023-08-06T10:21:34;5.13;;;2.53;;
10705;SDS011;5404;42.656;23.336;2023-08-06T10:23:59;5.18;;;2.90;;
10705;SDS011;5404;42.656;23.336;2023-08-06T10:26:29;8.18;;;2.95;;
10705;SDS011;5404;42.656;23.336;2023-08-06T10:28:55;3.33;;;2.20;;
10705;SDS011;5404;42.656;23.336;2023-08-06T10:34:20;5.43;;;2.15;;
10705;SDS011;5404;42.656;23.336;2023-08-06T10:36:45;4.38;;;2.22;;
10705;SDS011;5404;42.656;23.336;2023-08-06T10:39:14;3.10;;;2.20;;
10705;SDS011;5404;42.656;23.336;2023-08-06T10:41:41;3.08;;;2.25;;
10705;SDS011;5404;42.656;23.336;2023-08-06T10:44:08;4.75;;;2.35;;
10705;SDS011;5404;42.656;23.336;2023-08-06T10:46:34;3.80;;;2.50;;
10705;SDS011;5404;42.656;23.336;2023-08-06T10:49:00;2.40;;;2.15;;
10705;SDS011;5404;42.656;23.336;2023-08-06T10:51:26;6.60;;;2.55;;
10705;SDS011;5404;42.656;23.336;2023-08-06T10:53:52;8.68;;;2.72;;
10705;SDS011;5404;42.656;23.336;2023-08-06T10:56:19;3.90;;;2.40;;
10705;SDS011;5404;42.656;23.336;2023-08-06T10:58:50;3.55;;;2.70;;
10705;SDS011;5404;42.656;23.336;2023-08-06T11:01:17;6.55;;;2.55;;
10705;SDS011;5404;42.656;23.336;2023-08-06T11:03:43;4.43;;;2.83;;
10705;SDS011;5404;42.656;23.336;2023-08-06T11:06:10;3.92;;;2.90;;
10705;SDS011;5404;42.656;23.336;2023-08-06T11:08:37;8.23;;;2.72;;
10705;SDS011;5404;42.656;23.336;2023-08-06T11:11:13;3.85;;;2.90;;
10705;SDS011;5404;42.656;23.336;2023-08-06T11:13:40;3.97;;;2.75;;
10705;SDS011;5404;42.656;23.336;2023-08-06T11:16:07;6.65;;;2.90;;
10705;SDS011;5404;42.656;23.336;2023-08-06T11:18:33;4.03;;;2.90;;
10705;SDS011;5404;42.656;23.336;2023-08-06T11:20:59;7.35;;;3.17;;
10705;SDS011;5404;42.656;23.336;2023-08-06T11:23:28;5.13;;;3.00;;
10705;SDS011;5404;42.656;23.336;2023-08-06T11:25:55;8.63;;;3.25;;
10705;SDS011;5404;42.656;23.336;2023-08-06T11:28:21;9.20;;;2.38;;
10705;SDS011;5404;42.656;23.336;2023-08-06T11:30:47;5.07;;;2.90;;
10705;SDS011;5404;42.656;23.336;2023-08-06T11:33:13;5.55;;;2.65;;
10705;SDS011;5404;42.656;23.336;2023-08-06T11:35:39;6.43;;;3.67;;
10705;SDS011;5404;42.656;23.336;2023-08-06T11:38:06;10.07;;;3.40;;
10705;SDS011;5404;42.656;23.336;2023-08-06T11:40:32;7.97;;;4.15;;
10705;SDS011;5404;42.656;23.336;2023-08-06T11:42:58;7.15;;;4.05;;
10705;SDS011;5404;42.656;23.336;2023-08-06T11:45:24;6.55;;;4.28;;
10705;SDS011;5404;42.656;23.336;2023-08-06T11:47:50;11.82;;;4.30;;
10705;SDS011;5404;42.656;23.336;2023-08-06T11:50:23;8.75;;;4.55;;
10705;SDS011;5404;42.656;23.336;2023-08-06T11:52:49;8.32;;;4.30;;
10705;SDS011;5404;42.656;23.336;2023-08-06T11:55:22;8.70;;;4.00;;
10705;SDS011;5404;42.656;23.336;2023-08-06T12:00:14;5.55;;;3.92;;
10705;SDS011;5404;42.656;23.336;2023-08-06T12:02:43;5.47;;;4.03;;
10705;SDS011;5404;42.656;23.336;2023-08-06T12:07:37;8.05;;;3.83;;
10705;SDS011;5404;42.656;23.336;2023-08-06T12:10:07;8.80;;;3.70;;
10705;SDS011;5404;42.656;23.336;2023-08-06T12:12:33;4.45;;;3.58;;
10705;SDS011;5404;42.656;23.336;2023-08-06T12:14:59;5.85;;;3.35;;
10705;SDS011;5404;42.656;23.336;2023-08-06T12:17:25;9.93;;;3.97;;
10705;SDS011;5404;42.656;23.336;2023-08-06T12:19:51;8.32;;;4.43;;
10705;SDS011;5404;42.656;23.336;2023-08-06T12:22:16;6.60;;;4.05;;
10705;SDS011;5404;42.656;23.336;2023-08-06T12:24:43;10.48;;;5.18;;
10705;SDS011;5404;42.656;23.336;2023-08-06T12:27:09;10.70;;;4.18;;
10705;SDS011;5404;42.656;23.336;2023-08-06T12:29:35;10.55;;;5.15;;
10705;SDS011;5404;42.656;23.336;2023-08-06T12:32:02;7.97;;;4.72;;
10705;SDS011;5404;42.656;23.336;2023-08-06T12:34:28;10.20;;;4.30;;
10705;SDS011;5404;42.656;23.336;2023-08-06T12:36:54;6.90;;;5.03;;
10705;SDS011;5404;42.656;23.336;2023-08-06T12:39:19;5.70;;;4.72;;
10705;SDS011;5404;42.656;23.336;2023-08-06T12:41:44;6.72;;;4.60;;
10705;SDS011;5404;42.656;23.336;2023-08-06T12:44:11;6.22;;;4.60;;
10705;SDS011;5404;42.656;23.336;2023-08-06T12:46:37;7.13;;;4.78;;
10705;SDS011;5404;42.656;23.336;2023-08-06T12:49:02;5.53;;;4.90;;
10705;SDS011;5404;42.656;23.336;2023-08-06T12:51:28;6.45;;;4.72;;
10705;SDS011;5404;42.656;23.336;2023-08-06T12:53:54;5.60;;;4.90;;
10705;SDS011;5404;42.656;23.336;2023-08-06T12:56:19;8.70;;;5.38;;
10705;SDS011;5404;42.656;23.336;2023-08-06T12:58:44;9.68;;;4.95;;
10705;SDS011;5404;42.656;23.336;2023-08-06T13:01:10;10.73;;;5.13;;
10705;SDS011;5404;42.656;23.336;2023-08-06T13:03:36;5.90;;;4.75;;
10705;SDS011;5404;42.656;23.336;2023-08-06T13:06:01;10.25;;;5.32;;
10705;SDS011;5404;42.656;23.336;2023-08-06T13:08:27;6.57;;;4.90;;
10705;SDS011;5404;42.656;23.336;2023-08-06T13:10:52;6.00;;;5.05;;
10705;SDS011;5404;42.656;23.336;2023-08-06T13:13:17;6.05;;;4.70;;
10705;SDS011;5404;42.656;23.336;2023-08-06T13:15:43;8.38;;;4.78;;
10705;SDS011;5404;42.656;23.336;2023-08-06T13:18:08;7.80;;;4.40;;
10705;SDS011;5404;42.656;23.336;2023-08-06T13:20:34;6.60;;;4.70;;
10705;SDS011;5404;42.656;23.336;2023-08-06T13:22:59;9.30;;;5.22;;
10705;SDS011;5404;42.656;23.336;2023-08-06T13:25:26;5.25;;;4.70;;
10705;SDS011;5404;42.656;23.336;2023-08-06T13:27:53;8.43;;;4.88;;
10705;SDS011;5404;42.656;23.336;2023-08-06T13:30:19;6.30;;;5.05;;
10705;SDS011;5404;42.656;23.336;2023-08-06T13:32:45;7.60;;;4.47;;
10705;SDS011;5404;42.656;23.336;2023-08-06T13:35:11;8.48;;;4.75;;
10705;SDS011;5404;42.656;23.336;2023-08-06T13:37:36;8.40;;;5.22;;
10705;SDS011;5404;42.656;23.336;2023-08-06T13:40:02;10.90;;;5.35;;
10705;SDS011;5404;42.656;23.336;2023-08-06T13:42:28;6.75;;;4.50;;
10705;SDS011;5404;42.656;23.336;2023-08-06T13:44:54;8.20;;;4.57;;
10705;SDS011;5404;42.656;23.336;2023-08-06T13:47:24;11.45;;;5.32;;
10705;SDS011;5404;42.656;23.336;2023-08-06T13:49:50;7.03;;;4.70;;
10705;SDS011;5404;42.656;23.336;2023-08-06T13:52:15;5.32;;;4.45;;
10705;SDS011;5404;42.656;23.336;2023-08-06T13:54:41;9.18;;;4.47;;
10705;SDS011;5404;42.656;23.336;2023-08-06T13:57:06;6.22;;;4.22;;
10705;SDS011;5404;42.656;23.336;2023-08-06T13:59:32;4.78;;;4.20;;
10705;SDS011;5404;42.656;23.336;2023-08-06T14:01:57;9.98;;;3.80;;
10705;SDS011;5404;42.656;23.336;2023-08-06T14:04:24;7.63;;;5.15;;
10705;SDS011;5404;42.656;23.336;2023-08-06T14:06:50;9.55;;;4.82;;
10705;SDS011;5404;42.656;23.336;2023-08-06T14:09:16;5.13;;;4.15;;
10705;SDS011;5404;42.656;23.336;2023-08-06T14:11:43;11.90;;;4.88;;
10705;SDS011;5404;42.656;23.336;2023-08-06T14:14:09;14.52;;;4.93;;
10705;SDS011;5404;42.656;23.336;2023-08-06T14:16:35;6.65;;;4.43;;
10705;SDS011;5404;42.656;23.336;2023-08-06T14:19:01;7.40;;;4.25;;
10705;SDS011;5404;42.656;23.336;2023-08-06T14:21:27;7.20;;;4.20;;
10705;SDS011;5404;42.656;23.336;2023-08-06T14:23:52;6.35;;;4.20;;
10705;SDS011;5404;42.656;23.336;2023-08-06T14:26:17;6.00;;;4.30;;
10705;SDS011;5404;42.656;23.336;2023-08-06T14:28:43;5.95;;;3.88;;
10705;SDS011;5404;42.656;23.336;2023-08-06T14:31:08;11.25;;;4.07;;
10705;SDS011;5404;42.656;23.336;2023-08-06T14:33:34;4.50;;;3.55;;
10705;SDS011;5404;42.656;23.336;2023-08-06T14:35:59;6.68;;;3.90;;
10705;SDS011;5404;42.656;23.336;2023-08-06T14:38:25;5.63;;;4.13;;
10705;SDS011;5404;42.656;23.336;2023-08-06T14:40:50;6.18;;;3.63;;
10705;SDS011;5404;42.656;23.336;2023-08-06T14:43:16;5.55;;;4.32;;
10705;SDS011;5404;42.656;23.336;2023-08-06T14:45:42;5.63;;;4.00;;
10705;SDS011;5404;42.656;23.336;2023-08-06T14:48:07;6.95;;;4.15;;
10705;SDS011;5404;42.656;23.336;2023-08-06T14:50:33;4.93;;;3.85;;
10705;SDS011;5404;42.656;23.336;2023-08-06T14:52:58;7.57;;;4.10;;
10705;SDS011;5404;42.656;23.336;2023-08-06T14:57:52;4.60;;;3.42;;
10705;SDS011;5404;42.656;23.336;2023-08-06T15:00:18;4.13;;;2.78;;
10705;SDS011;5404;42.656;23.336;2023-08-06T15:02:45;6.80;;;3.40;;
10705;SDS011;5404;42.656;23.336;2023-08-06T15:05:10;4.35;;;3.38;;